Harsens Island, MI (48028)

8:58 PM EDT on July 24, 2016 (GMT -0400)
Club Island | | Change Station

Elev 577 ft 42.56 °N, 82.68 °W | Updated 39 seconds ago

Overcast
Overcast
78.1 °F
Feels Like 81 °F
N
7.6
Wind Variable Wind from SE
Gusts 9.8 mph

Today
High -- | Low -- °F
--% Chance of Precip.
Yesterday
High -- | Low -- °F
Precip. -- in
Pressure 29.90 in
Visibility 10.0 miles
Clouds Mostly Cloudy 13000 ft
Overcast 25000 ft
Heat Index 81 °F
Dew Point 73 °F
Humidity 84%
Rainfall 0.04 in
Snow Depth Not available.
6:14 AM 8:58 PM
Waning Gibbous, 71% visible
METAR KMTC 242358Z 15005KT 10SM BKN130 OVC250 26/22 A2990 RMK AO2A SLP124 T02600221 10285 20253 56003 $
Pressure 29.90 in
Visibility 10.0 miles
Clouds Mostly Cloudy 13000 ft
Overcast 25000 ft
Heat Index 81 °F
Dew Point 73 °F
Humidity 84%
Rainfall 0.04 in
Snow Depth Not available.
6:14 AM 8:58 PM
Waning Gibbous, 71% visible
METAR KMTC 242358Z 15005KT 10SM BKN130 OVC250 26/22 A2990 RMK AO2A SLP124 T02600221 10285 20253 56003 $

10-Day Weather Forecast

Almanac

Astronomy

Jul. 24, 2016 Rise Set
Actual Time
Civil Twilight
Nautical Twilight
Astronomical Twilight
Moon
Length of Visible Light
Length of Day
Tomorrow will be .
, % of the Moon is Illuminated

Today's Extremes

State Highs State Lows

Community

WunderPhotos

Upload Photos

1,927,218 photos uploaded!

WunderBlog® & News

Nearby

Air Quality

  Air Quality AQ Index Pollutant
Not available.

Snow Depth

Station Depth Elevation

Earthquake Activity

City Distance Mag. Time & Date
Minimum magnitude displayed is 2.5.

Coastal Water Temperatures

Place Temperature

Stations

Nearby Weather Stations

Station Location Temp. Windchill Dew Point Humidity Wind Precip. Elev Updated Type
                   

Watches & Warnings

There are currently no watches in effect.